sensor_id;sensor_type;location;lat;lon;timestamp;temperature;humidity
14555;DHT22;7364;50.870;4.722;2023-04-24T00:02:01;11.00;99.90
14555;DHT22;7364;50.870;4.722;2023-04-24T00:04:33;10.80;99.90
14555;DHT22;7364;50.870;4.722;2023-04-24T00:07:00;11.00;99.90
14555;DHT22;7364;50.870;4.722;2023-04-24T00:09:28;10.90;99.90
14555;DHT22;7364;50.870;4.722;2023-04-24T00:11:56;11.00;99.90
14555;DHT22;7364;50.870;4.722;2023-04-24T00:14:23;11.20;99.90
14555;DHT22;7364;50.870;4.722;2023-04-24T00:16:50;11.00;99.90
14555;DHT22;7364;50.870;4.722;2023-04-24T00:19:18;10.90;99.90
14555;DHT22;7364;50.870;4.722;2023-04-24T00:21:48;10.70;99.90
14555;DHT22;7364;50.870;4.722;2023-04-24T00:24:16;10.70;99.90
14555;DHT22;7364;50.870;4.722;2023-04-24T00:26:44;10.60;99.90
14555;DHT22;7364;50.870;4.722;2023-04-24T00:29:11;10.60;99.90
14555;DHT22;7364;50.870;4.722;2023-04-24T00:31:40;10.60;99.90
14555;DHT22;7364;50.870;4.722;2023-04-24T00:34:07;10.60;99.90
14555;DHT22;7364;50.870;4.722;2023-04-24T00:36:36;10.60;99.90
14555;DHT22;7364;50.870;4.722;2023-04-24T00:39:04;10.60;99.90
14555;DHT22;7364;50.870;4.722;2023-04-24T00:41:34;10.50;99.90
14555;DHT22;7364;50.870;4.722;2023-04-24T00:44:02;10.70;99.90
14555;DHT22;7364;50.870;4.722;2023-04-24T00:46:30;10.80;99.90
14555;DHT22;7364;50.870;4.722;2023-04-24T00:48:59;10.60;99.90
14555;DHT22;7364;50.870;4.722;2023-04-24T00:51:26;10.70;99.90
14555;DHT22;7364;50.870;4.722;2023-04-24T00:53:53;10.70;99.90
14555;DHT22;7364;50.870;4.722;2023-04-24T00:56:22;10.60;99.90
14555;DHT22;7364;50.870;4.722;2023-04-24T00:58:50;10.80;99.90
14555;DHT22;7364;50.870;4.722;2023-04-24T01:01:17;10.60;99.90
14555;DHT22;7364;50.870;4.722;2023-04-24T01:03:46;10.70;99.90
14555;DHT22;7364;50.870;4.722;2023-04-24T01:06:14;10.80;99.90
14555;DHT22;7364;50.870;4.722;2023-04-24T01:08:41;10.70;99.90
14555;DHT22;7364;50.870;4.722;2023-04-24T01:11:09;10.60;99.90
14555;DHT22;7364;50.870;4.722;2023-04-24T01:13:38;10.50;99.90
14555;DHT22;7364;50.870;4.722;2023-04-24T01:16:05;10.50;99.90
14555;DHT22;7364;50.870;4.722;2023-04-24T01:18:32;10.40;99.90
14555;DHT22;7364;50.870;4.722;2023-04-24T01:21:04;10.40;99.90
14555;DHT22;7364;50.870;4.722;2023-04-24T01:23:33;10.50;99.90
14555;DHT22;7364;50.870;4.722;2023-04-24T01:26:03;10.70;99.90
14555;DHT22;7364;50.870;4.722;2023-04-24T01:28:31;10.80;99.90
14555;DHT22;7364;50.870;4.722;2023-04-24T01:30:58;10.70;99.90
14555;DHT22;7364;50.870;4.722;2023-04-24T01:33:26;10.80;99.90
14555;DHT22;7364;50.870;4.722;2023-04-24T01:35:54;10.80;99.90
14555;DHT22;7364;50.870;4.722;2023-04-24T01:38:21;10.70;99.90
14555;DHT22;7364;50.870;4.722;2023-04-24T01:40:51;10.70;99.90
14555;DHT22;7364;50.870;4.722;2023-04-24T01:43:19;10.70;99.90
14555;DHT22;7364;50.870;4.722;2023-04-24T01:45:46;10.80;99.90
14555;DHT22;7364;50.870;4.722;2023-04-24T01:48:14;10.90;99.90
14555;DHT22;7364;50.870;4.722;2023-04-24T01:50:41;10.90;99.90
14555;DHT22;7364;50.870;4.722;2023-04-24T01:53:08;10.70;99.90
14555;DHT22;7364;50.870;4.722;2023-04-24T01:55:36;10.70;99.90
14555;DHT22;7364;50.870;4.722;2023-04-24T01:58:04;10.50;99.90
14555;DHT22;7364;50.870;4.722;2023-04-24T02:00:32;10.50;99.90
14555;DHT22;7364;50.870;4.722;2023-04-24T02:02:59;10.60;99.90
14555;DHT22;7364;50.870;4.722;2023-04-24T02:05:27;10.60;99.90
14555;DHT22;7364;50.870;4.722;2023-04-24T02:07:55;10.30;99.90
14555;DHT22;7364;50.870;4.722;2023-04-24T02:10:22;10.20;99.90
14555;DHT22;7364;50.870;4.722;2023-04-24T02:12:51;10.20;99.90
14555;DHT22;7364;50.870;4.722;2023-04-24T02:15:23;10.20;99.90
14555;DHT22;7364;50.870;4.722;2023-04-24T02:17:50;10.20;99.90
14555;DHT22;7364;50.870;4.722;2023-04-24T02:20:17;10.40;99.90
14555;DHT22;7364;50.870;4.722;2023-04-24T02:22:45;10.50;99.90
14555;DHT22;7364;50.870;4.722;2023-04-24T02:25:12;10.50;99.90
14555;DHT22;7364;50.870;4.722;2023-04-24T02:27:39;10.50;99.90
14555;DHT22;7364;50.870;4.722;2023-04-24T02:30:08;10.10;99.90
14555;DHT22;7364;50.870;4.722;2023-04-24T02:32:39;9.80;99.90
14555;DHT22;7364;50.870;4.722;2023-04-24T02:35:07;9.70;99.90
14555;DHT22;7364;50.870;4.722;2023-04-24T02:37:35;9.70;99.90
14555;DHT22;7364;50.870;4.722;2023-04-24T02:40:02;9.70;99.90
14555;DHT22;7364;50.870;4.722;2023-04-24T02:42:30;9.60;99.90
14555;DHT22;7364;50.870;4.722;2023-04-24T02:44:59;9.80;99.90
14555;DHT22;7364;50.870;4.722;2023-04-24T02:47:26;10.00;99.90
14555;DHT22;7364;50.870;4.722;2023-04-24T02:49:55;10.20;99.90
14555;DHT22;7364;50.870;4.722;2023-04-24T02:52:22;10.20;99.90
14555;DHT22;7364;50.870;4.722;2023-04-24T02:54:49;10.20;99.90
14555;DHT22;7364;50.870;4.722;2023-04-24T02:57:17;10.00;99.90
14555;DHT22;7364;50.870;4.722;2023-04-24T02:59:44;9.70;99.90
14555;DHT22;7364;50.870;4.722;2023-04-24T03:02:11;9.60;99.90
14555;DHT22;7364;50.870;4.722;2023-04-24T03:04:39;9.40;99.90
14555;DHT22;7364;50.870;4.722;2023-04-24T03:07:10;9.40;99.90
14555;DHT22;7364;50.870;4.722;2023-04-24T03:09:37;9.30;99.90
14555;DHT22;7364;50.870;4.722;2023-04-24T03:12:05;9.30;99.90
14555;DHT22;7364;50.870;4.722;2023-04-24T03:14:32;9.40;99.90
14555;DHT22;7364;50.870;4.722;2023-04-24T03:17:00;9.50;99.90
14555;DHT22;7364;50.870;4.722;2023-04-24T03:19:27;9.60;99.90
14555;DHT22;7364;50.870;4.722;2023-04-24T03:21:55;9.50;99.90
14555;DHT22;7364;50.870;4.722;2023-04-24T03:24:23;9.50;99.90
14555;DHT22;7364;50.870;4.722;2023-04-24T03:26:53;9.50;99.90
14555;DHT22;7364;50.870;4.722;2023-04-24T03:29:23;9.50;99.90
14555;DHT22;7364;50.870;4.722;2023-04-24T03:31:50;9.60;99.90
14555;DHT22;7364;50.870;4.722;2023-04-24T03:34:17;9.80;99.90
14555;DHT22;7364;50.870;4.722;2023-04-24T03:36:44;9.70;99.90
14555;DHT22;7364;50.870;4.722;2023-04-24T03:39:13;9.70;99.90
14555;DHT22;7364;50.870;4.722;2023-04-24T03:41:41;9.80;99.90
14555;DHT22;7364;50.870;4.722;2023-04-24T03:44:09;9.90;99.90
14555;DHT22;7364;50.870;4.722;2023-04-24T03:46:36;10.00;99.90
14555;DHT22;7364;50.870;4.722;2023-04-24T03:49:04;10.10;99.90
14555;DHT22;7364;50.870;4.722;2023-04-24T03:51:31;10.00;99.90
14555;DHT22;7364;50.870;4.722;2023-04-24T03:53:59;9.90;99.90
14555;DHT22;7364;50.870;4.722;2023-04-24T03:56:26;9.60;99.90
14555;DHT22;7364;50.870;4.722;2023-04-24T03:58:55;9.50;99.90
14555;DHT22;7364;50.870;4.722;2023-04-24T04:01:22;9.40;99.90
14555;DHT22;7364;50.870;4.722;2023-04-24T04:03:50;9.30;99.90
14555;DHT22;7364;50.870;4.722;2023-04-24T04:06:17;9.20;99.90
14555;DHT22;7364;50.870;4.722;2023-04-24T04:08:45;9.00;99.90
14555;DHT22;7364;50.870;4.722;2023-04-24T04:11:12;8.80;99.90
14555;DHT22;7364;50.870;4.722;2023-04-24T04:13:40;8.80;99.90
14555;DHT22;7364;50.870;4.722;2023-04-24T04:16:08;8.70;99.90
14555;DHT22;7364;50.870;4.722;2023-04-24T04:18:36;8.70;99.90
14555;DHT22;7364;50.870;4.722;2023-04-24T04:21:03;8.70;99.90
14555;DHT22;7364;50.870;4.722;2023-04-24T04:23:30;8.70;99.90
14555;DHT22;7364;50.870;4.722;2023-04-24T04:25:58;8.70;99.90
14555;DHT22;7364;50.870;4.722;2023-04-24T04:28:25;8.80;99.90
14555;DHT22;7364;50.870;4.722;2023-04-24T04:30:53;8.70;99.90
14555;DHT22;7364;50.870;4.722;2023-04-24T04:33:22;8.80;99.90
14555;DHT22;7364;50.870;4.722;2023-04-24T04:35:49;8.80;99.90
14555;DHT22;7364;50.870;4.722;2023-04-24T04:38:18;8.80;99.90
14555;DHT22;7364;50.870;4.722;2023-04-24T04:40:45;8.70;99.90
14555;DHT22;7364;50.870;4.722;2023-04-24T04:43:13;8.70;99.90
14555;DHT22;7364;50.870;4.722;2023-04-24T04:45:40;8.70;99.90
14555;DHT22;7364;50.870;4.722;2023-04-24T04:48:09;8.70;99.90
14555;DHT22;7364;50.870;4.722;2023-04-24T04:50:40;8.70;99.90
14555;DHT22;7364;50.870;4.722;2023-04-24T04:53:07;8.70;99.90
14555;DHT22;7364;50.870;4.722;2023-04-24T04:55:34;8.70;99.90
14555;DHT22;7364;50.870;4.722;2023-04-24T04:58:02;8.60;99.90
14555;DHT22;7364;50.870;4.722;2023-04-24T05:00:29;8.60;99.90
14555;DHT22;7364;50.870;4.722;2023-04-24T05:03:01;8.60;99.90
14555;DHT22;7364;50.870;4.722;2023-04-24T05:05:29;8.60;99.90
14555;DHT22;7364;50.870;4.722;2023-04-24T05:08:08;8.60;99.90
14555;DHT22;7364;50.870;4.722;2023-04-24T05:10:35;8.60;99.90
14555;DHT22;7364;50.870;4.722;2023-04-24T05:13:03;8.60;99.90
14555;DHT22;7364;50.870;4.722;2023-04-24T05:15:30;8.50;99.90
14555;DHT22;7364;50.870;4.722;2023-04-24T05:17:57;8.50;99.90
14555;DHT22;7364;50.870;4.722;2023-04-24T05:20:25;8.50;99.90
14555;DHT22;7364;50.870;4.722;2023-04-24T05:22:52;8.50;99.90
14555;DHT22;7364;50.870;4.722;2023-04-24T05:25:21;8.40;99.90
14555;DHT22;7364;50.870;4.722;2023-04-24T05:27:48;8.40;99.90
14555;DHT22;7364;50.870;4.722;2023-04-24T05:30:16;8.50;99.90
14555;DHT22;7364;50.870;4.722;2023-04-24T05:32:43;8.50;99.90
14555;DHT22;7364;50.870;4.722;2023-04-24T05:35:11;8.50;99.90
14555;DHT22;7364;50.870;4.722;2023-04-24T05:37:39;8.50;99.90
14555;DHT22;7364;50.870;4.722;2023-04-24T05:40:07;8.50;99.90
14555;DHT22;7364;50.870;4.722;2023-04-24T05:42:36;8.40;99.90
14555;DHT22;7364;50.870;4.722;2023-04-24T05:45:04;8.40;99.90
14555;DHT22;7364;50.870;4.722;2023-04-24T05:47:31;8.40;99.90
14555;DHT22;7364;50.870;4.722;2023-04-24T05:49:58;8.40;99.90
14555;DHT22;7364;50.870;4.722;2023-04-24T05:52:26;8.40;99.90
14555;DHT22;7364;50.870;4.722;2023-04-24T05:54:53;8.30;99.90
14555;DHT22;7364;50.870;4.722;2023-04-24T05:57:21;8.30;99.90
14555;DHT22;7364;50.870;4.722;2023-04-24T05:59:49;8.30;99.90
14555;DHT22;7364;50.870;4.722;2023-04-24T06:02:17;8.30;99.90
14555;DHT22;7364;50.870;4.722;2023-04-24T06:04:45;8.30;99.90
14555;DHT22;7364;50.870;4.722;2023-04-24T06:07:12;8.20;99.90
14555;DHT22;7364;50.870;4.722;2023-04-24T06:09:40;8.30;99.90
14555;DHT22;7364;50.870;4.722;2023-04-24T06:12:08;8.30;99.90
14555;DHT22;7364;50.870;4.722;2023-04-24T06:14:36;8.30;99.90
14555;DHT22;7364;50.870;4.722;2023-04-24T06:17:06;8.30;99.90
14555;DHT22;7364;50.870;4.722;2023-04-24T06:19:34;8.30;99.90
14555;DHT22;7364;50.870;4.722;2023-04-24T06:22:01;8.30;99.90
14555;DHT22;7364;50.870;4.722;2023-04-24T06:24:34;8.30;99.90
14555;DHT22;7364;50.870;4.722;2023-04-24T06:27:01;8.30;99.90
14555;DHT22;7364;50.870;4.722;2023-04-24T06:29:28;8.30;99.90
14555;DHT22;7364;50.870;4.722;2023-04-24T06:31:55;8.30;99.90
14555;DHT22;7364;50.870;4.722;2023-04-24T06:34:24;8.30;99.90
14555;DHT22;7364;50.870;4.722;2023-04-24T06:36:51;8.30;99.90
14555;DHT22;7364;50.870;4.722;2023-04-24T06:39:18;8.30;99.90
14555;DHT22;7364;50.870;4.722;2023-04-24T06:41:45;8.30;99.90
14555;DHT22;7364;50.870;4.722;2023-04-24T06:44:13;8.30;99.90
14555;DHT22;7364;50.870;4.722;2023-04-24T06:46:41;8.30;99.90
14555;DHT22;7364;50.870;4.722;2023-04-24T06:49:08;8.30;99.90
14555;DHT22;7364;50.870;4.722;2023-04-24T06:51:37;8.30;99.90
14555;DHT22;7364;50.870;4.722;2023-04-24T06:54:04;8.30;99.90
14555;DHT22;7364;50.870;4.722;2023-04-24T06:56:31;8.30;99.90
14555;DHT22;7364;50.870;4.722;2023-04-24T06:59:00;8.30;99.90
14555;DHT22;7364;50.870;4.722;2023-04-24T07:01:27;8.40;99.90
14555;DHT22;7364;50.870;4.722;2023-04-24T07:03:54;8.30;99.90
14555;DHT22;7364;50.870;4.722;2023-04-24T07:06:22;8.30;99.90
14555;DHT22;7364;50.870;4.722;2023-04-24T07:08:51;8.30;99.90
14555;DHT22;7364;50.870;4.722;2023-04-24T07:11:19;8.30;99.90
14555;DHT22;7364;50.870;4.722;2023-04-24T07:13:46;8.40;99.90
14555;DHT22;7364;50.870;4.722;2023-04-24T07:16:13;8.50;99.90
14555;DHT22;7364;50.870;4.722;2023-04-24T07:18:41;8.50;99.90
14555;DHT22;7364;50.870;4.722;2023-04-24T07:21:08;8.50;99.90
14555;DHT22;7364;50.870;4.722;2023-04-24T07:23:36;8.50;99.90
14555;DHT22;7364;50.870;4.722;2023-04-24T07:26:05;8.50;99.90
14555;DHT22;7364;50.870;4.722;2023-04-24T07:28:32;8.50;99.90
14555;DHT22;7364;50.870;4.722;2023-04-24T07:30:59;8.60;99.90
14555;DHT22;7364;50.870;4.722;2023-04-24T07:33:27;8.70;99.90
14555;DHT22;7364;50.870;4.722;2023-04-24T07:35:54;8.60;99.90
14555;DHT22;7364;50.870;4.722;2023-04-24T07:38:22;8.60;99.90
14555;DHT22;7364;50.870;4.722;2023-04-24T07:40:53;8.50;99.90
14555;DHT22;7364;50.870;4.722;2023-04-24T07:43:22;8.60;99.90
14555;DHT22;7364;50.870;4.722;2023-04-24T07:45:50;8.60;99.90
14555;DHT22;7364;50.870;4.722;2023-04-24T07:48:17;8.60;99.90
14555;DHT22;7364;50.870;4.722;2023-04-24T07:50:47;8.60;99.90
14555;DHT22;7364;50.870;4.722;2023-04-24T07:53:15;8.60;99.90
14555;DHT22;7364;50.870;4.722;2023-04-24T07:55:42;8.70;99.90
14555;DHT22;7364;50.870;4.722;2023-04-24T07:58:12;8.70;99.90
14555;DHT22;7364;50.870;4.722;2023-04-24T08:00:40;8.70;99.90
14555;DHT22;7364;50.870;4.722;2023-04-24T08:03:08;8.60;99.90
14555;DHT22;7364;50.870;4.722;2023-04-24T08:05:35;8.60;99.90
14555;DHT22;7364;50.870;4.722;2023-04-24T08:08:02;8.60;99.90
14555;DHT22;7364;50.870;4.722;2023-04-24T08:10:29;8.70;99.90
14555;DHT22;7364;50.870;4.722;2023-04-24T08:12:57;8.70;99.90
14555;DHT22;7364;50.870;4.722;2023-04-24T08:15:24;8.80;99.90
14555;DHT22;7364;50.870;4.722;2023-04-24T08:17:53;9.00;99.90
14555;DHT22;7364;50.870;4.722;2023-04-24T08:20:20;9.20;99.90
14555;DHT22;7364;50.870;4.722;2023-04-24T08:22:47;9.30;99.90
14555;DHT22;7364;50.870;4.722;2023-04-24T08:25:15;9.30;99.90
14555;DHT22;7364;50.870;4.722;2023-04-24T08:27:43;9.30;99.90
14555;DHT22;7364;50.870;4.722;2023-04-24T08:30:10;9.30;99.90
14555;DHT22;7364;50.870;4.722;2023-04-24T08:32:38;9.20;99.90
14555;DHT22;7364;50.870;4.722;2023-04-24T08:35:07;9.20;99.90
14555;DHT22;7364;50.870;4.722;2023-04-24T08:37:35;9.10;99.90
14555;DHT22;7364;50.870;4.722;2023-04-24T08:40:09;9.10;99.90
14555;DHT22;7364;50.870;4.722;2023-04-24T08:42:39;9.10;99.90
14555;DHT22;7364;50.870;4.722;2023-04-24T08:45:07;9.10;99.90
14555;DHT22;7364;50.870;4.722;2023-04-24T08:47:35;9.20;99.90
14555;DHT22;7364;50.870;4.722;2023-04-24T08:50:07;9.20;99.90
14555;DHT22;7364;50.870;4.722;2023-04-24T08:52:35;9.30;99.90
14555;DHT22;7364;50.870;4.722;2023-04-24T08:55:03;9.40;99.90
14555;DHT22;7364;50.870;4.722;2023-04-24T08:57:31;9.50;99.90
14555;DHT22;7364;50.870;4.722;2023-04-24T08:59:59;9.40;99.90
14555;DHT22;7364;50.870;4.722;2023-04-24T09:02:27;9.50;99.90
14555;DHT22;7364;50.870;4.722;2023-04-24T09:04:56;9.70;99.90
14555;DHT22;7364;50.870;4.722;2023-04-24T09:07:27;9.80;99.90
14555;DHT22;7364;50.870;4.722;2023-04-24T09:09:58;9.90;99.90
14555;DHT22;7364;50.870;4.722;2023-04-24T09:12:26;9.80;99.90
14555;DHT22;7364;50.870;4.722;2023-04-24T09:14:53;9.90;99.90
14555;DHT22;7364;50.870;4.722;2023-04-24T09:17:21;9.80;99.90
14555;DHT22;7364;50.870;4.722;2023-04-24T09:19:50;9.80;99.90
14555;DHT22;7364;50.870;4.722;2023-04-24T09:22:17;9.90;99.90
14555;DHT22;7364;50.870;4.722;2023-04-24T09:24:47;10.00;99.90
14555;DHT22;7364;50.870;4.722;2023-04-24T09:27:15;10.00;99.90
14555;DHT22;7364;50.870;4.722;2023-04-24T09:29:54;10.00;99.90
14555;DHT22;7364;50.870;4.722;2023-04-24T09:32:22;10.00;99.90
14555;DHT22;7364;50.870;4.722;2023-04-24T09:35:05;10.00;99.90
14555;DHT22;7364;50.870;4.722;2023-04-24T09:37:36;10.20;99.90
14555;DHT22;7364;50.870;4.722;2023-04-24T09:40:14;10.40;99.90
14555;DHT22;7364;50.870;4.722;2023-04-24T09:42:44;10.70;99.90
14555;DHT22;7364;50.870;4.722;2023-04-24T09:45:14;10.90;99.90
14555;DHT22;7364;50.870;4.722;2023-04-24T09:47:41;10.90;99.90
14555;DHT22;7364;50.870;4.722;2023-04-24T09:50:10;10.80;99.90
14555;DHT22;7364;50.870;4.722;2023-04-24T09:52:41;10.80;99.90
14555;DHT22;7364;50.870;4.722;2023-04-24T09:55:20;10.70;99.90
14555;DHT22;7364;50.870;4.722;2023-04-24T09:57:49;10.60;99.90
14555;DHT22;7364;50.870;4.722;2023-04-24T10:00:24;10.60;99.90
14555;DHT22;7364;50.870;4.722;2023-04-24T10:02:59;10.50;99.90
14555;DHT22;7364;50.870;4.722;2023-04-24T10:05:28;10.70;99.90
14555;DHT22;7364;50.870;4.722;2023-04-24T10:07:59;10.90;99.90
14555;DHT22;7364;50.870;4.722;2023-04-24T10:10:28;11.10;99.90
14555;DHT22;7364;50.870;4.722;2023-04-24T10:12:56;11.30;99.90
14555;DHT22;7364;50.870;4.722;2023-04-24T10:15:24;11.40;99.90
14555;DHT22;7364;50.870;4.722;2023-04-24T10:17:53;11.40;99.90
14555;DHT22;7364;50.870;4.722;2023-04-24T10:20:22;11.50;99.90
14555;DHT22;7364;50.870;4.722;2023-04-24T10:22:51;11.50;99.90
14555;DHT22;7364;50.870;4.722;2023-04-24T10:25:20;11.30;99.90
14555;DHT22;7364;50.870;4.722;2023-04-24T10:27:50;11.40;99.90
14555;DHT22;7364;50.870;4.722;2023-04-24T10:30:18;11.60;99.90
14555;DHT22;7364;50.870;4.722;2023-04-24T10:32:46;11.60;99.90
14555;DHT22;7364;50.870;4.722;2023-04-24T10:35:14;11.60;99.90
14555;DHT22;7364;50.870;4.722;2023-04-24T10:37:45;11.50;99.90
14555;DHT22;7364;50.870;4.722;2023-04-24T10:40:17;11.30;99.90
14555;DHT22;7364;50.870;4.722;2023-04-24T10:42:51;11.50;99.90
14555;DHT22;7364;50.870;4.722;2023-04-24T10:45:20;11.70;99.90
14555;DHT22;7364;50.870;4.722;2023-04-24T10:47:52;11.80;99.90
14555;DHT22;7364;50.870;4.722;2023-04-24T10:50:20;11.70;99.90
14555;DHT22;7364;50.870;4.722;2023-04-24T10:52:47;11.70;99.90
14555;DHT22;7364;50.870;4.722;2023-04-24T10:55:17;11.80;99.90
14555;DHT22;7364;50.870;4.722;2023-04-24T10:58:06;11.80;99.90
14555;DHT22;7364;50.870;4.722;2023-04-24T11:00:37;12.10;99.90
14555;DHT22;7364;50.870;4.722;2023-04-24T11:03:05;12.10;99.90
14555;DHT22;7364;50.870;4.722;2023-04-24T11:05:53;12.10;99.90
14555;DHT22;7364;50.870;4.722;2023-04-24T11:08:25;11.80;99.90
14555;DHT22;7364;50.870;4.722;2023-04-24T11:11:01;11.60;99.90
14555;DHT22;7364;50.870;4.722;2023-04-24T11:16:44;11.40;99.90
14555;DHT22;7364;50.870;4.722;2023-04-24T11:19:20;11.50;99.90
14555;DHT22;7364;50.870;4.722;2023-04-24T11:21:48;11.80;99.90
14555;DHT22;7364;50.870;4.722;2023-04-24T11:24:28;11.90;99.90
14555;DHT22;7364;50.870;4.722;2023-04-24T11:26:58;12.10;99.90
14555;DHT22;7364;50.870;4.722;2023-04-24T11:29:42;12.40;99.90
14555;DHT22;7364;50.870;4.722;2023-04-24T11:32:24;12.40;99.90
14555;DHT22;7364;50.870;4.722;2023-04-24T11:34:53;12.00;99.90
14555;DHT22;7364;50.870;4.722;2023-04-24T11:37:22;11.80;99.90
14555;DHT22;7364;50.870;4.722;2023-04-24T11:39:51;11.80;99.90
14555;DHT22;7364;50.870;4.722;2023-04-24T11:42:20;11.80;99.90
14555;DHT22;7364;50.870;4.722;2023-04-24T11:44:48;11.80;99.90
14555;DHT22;7364;50.870;4.722;2023-04-24T11:47:16;12.00;99.90
14555;DHT22;7364;50.870;4.722;2023-04-24T11:49:45;12.20;99.90
14555;DHT22;7364;50.870;4.722;2023-04-24T11:52:15;12.10;99.90
14555;DHT22;7364;50.870;4.722;2023-04-24T11:54:48;12.30;99.90
14555;DHT22;7364;50.870;4.722;2023-04-24T11:57:16;12.40;99.90
14555;DHT22;7364;50.870;4.722;2023-04-24T11:59:43;12.30;99.90
14555;DHT22;7364;50.870;4.722;2023-04-24T12:02:20;12.10;99.90
14555;DHT22;7364;50.870;4.722;2023-04-24T12:04:50;12.00;99.90
14555;DHT22;7364;50.870;4.722;2023-04-24T12:07:17;12.20;99.90
14555;DHT22;7364;50.870;4.722;2023-04-24T12:09:47;12.50;99.90
14555;DHT22;7364;50.870;4.722;2023-04-24T12:12:17;12.80;99.90
14555;DHT22;7364;50.870;4.722;2023-04-24T12:14:49;12.90;99.90
14555;DHT22;7364;50.870;4.722;2023-04-24T12:17:17;12.90;99.90
14555;DHT22;7364;50.870;4.722;2023-04-24T12:19:48;12.70;99.90
14555;DHT22;7364;50.870;4.722;2023-04-24T12:22:16;12.60;99.90
14555;DHT22;7364;50.870;4.722;2023-04-24T12:25:00;12.60;99.90
14555;DHT22;7364;50.870;4.722;2023-04-24T12:27:31;12.70;99.90
14555;DHT22;7364;50.870;4.722;2023-04-24T12:30:01;12.90;99.90
14555;DHT22;7364;50.870;4.722;2023-04-24T12:32:28;12.70;99.90
14555;DHT22;7364;50.870;4.722;2023-04-24T12:34:57;12.70;99.90
14555;DHT22;7364;50.870;4.722;2023-04-24T12:37:25;12.60;99.90
14555;DHT22;7364;50.870;4.722;2023-04-24T12:40:00;12.70;99.90
14555;DHT22;7364;50.870;4.722;2023-04-24T12:42:29;13.00;99.90
14555;DHT22;7364;50.870;4.722;2023-04-24T12:44:57;13.10;99.90
14555;DHT22;7364;50.870;4.722;2023-04-24T12:47:26;13.80;99.90
14555;DHT22;7364;50.870;4.722;2023-04-24T12:49:53;14.20;99.90
14555;DHT22;7364;50.870;4.722;2023-04-24T12:52:22;14.20;99.90
14555;DHT22;7364;50.870;4.722;2023-04-24T12:54:53;14.00;99.90
14555;DHT22;7364;50.870;4.722;2023-04-24T12:57:24;13.80;99.90
14555;DHT22;7364;50.870;4.722;2023-04-24T12:59:54;13.50;99.90
14555;DHT22;7364;50.870;4.722;2023-04-24T13:02:22;14.20;99.90
14555;DHT22;7364;50.870;4.722;2023-04-24T13:04:50;14.40;99.90
14555;DHT22;7364;50.870;4.722;2023-04-24T13:07:17;14.50;99.90
14555;DHT22;7364;50.870;4.722;2023-04-24T13:09:47;15.20;99.90
14555;DHT22;7364;50.870;4.722;2023-04-24T13:12:14;16.30;98.50
14555;DHT22;7364;50.870;4.722;2023-04-24T13:14:42;17.40;96.60
14555;DHT22;7364;50.870;4.722;2023-04-24T13:17:09;17.80;95.30
14555;DHT22;7364;50.870;4.722;2023-04-24T13:19:38;18.60;94.10
14555;DHT22;7364;50.870;4.722;2023-04-24T13:22:06;18.30;95.00
14555;DHT22;7364;50.870;4.722;2023-04-24T13:24:33;19.20;94.70
14555;DHT22;7364;50.870;4.722;2023-04-24T13:27:02;18.50;93.70
14555;DHT22;7364;50.870;4.722;2023-04-24T13:29:29;16.50;95.40
14555;DHT22;7364;50.870;4.722;2023-04-24T13:32:00;15.30;96.80
14555;DHT22;7364;50.870;4.722;2023-04-24T13:34:28;15.00;97.10
14555;DHT22;7364;50.870;4.722;2023-04-24T13:36:57;15.60;97.50
14555;DHT22;7364;50.870;4.722;2023-04-24T13:39:24;15.90;96.40
14555;DHT22;7364;50.870;4.722;2023-04-24T13:41:52;14.90;97.20
14555;DHT22;7364;50.870;4.722;2023-04-24T13:44:22;16.00;97.90
14555;DHT22;7364;50.870;4.722;2023-04-24T13:46:51;16.20;95.90
14555;DHT22;7364;50.870;4.722;2023-04-24T13:49:20;16.20;95.60
14555;DHT22;7364;50.870;4.722;2023-04-24T13:51:47;16.80;95.00
14555;DHT22;7364;50.870;4.722;2023-04-24T13:54:15;17.00;93.10
14555;DHT22;7364;50.870;4.722;2023-04-24T13:56:42;16.80;94.60
14555;DHT22;7364;50.870;4.722;2023-04-24T13:59:11;17.90;93.80
14555;DHT22;7364;50.870;4.722;2023-04-24T14:01:41;18.60;91.90
14555;DHT22;7364;50.870;4.722;2023-04-24T14:04:08;18.50;92.70
14555;DHT22;7364;50.870;4.722;2023-04-24T14:06:35;19.40;93.10
14555;DHT22;7364;50.870;4.722;2023-04-24T14:09:02;20.30;90.70
14555;DHT22;7364;50.870;4.722;2023-04-24T14:11:30;19.40;90.90
14555;DHT22;7364;50.870;4.722;2023-04-24T14:13:57;18.50;91.60
14555;DHT22;7364;50.870;4.722;2023-04-24T14:16:25;17.80;92.10
14555;DHT22;7364;50.870;4.722;2023-04-24T14:19:04;17.10;93.80
14555;DHT22;7364;50.870;4.722;2023-04-24T14:21:36;17.00;94.70
14555;DHT22;7364;50.870;4.722;2023-04-24T14:24:07;16.20;94.50
14555;DHT22;7364;50.870;4.722;2023-04-24T14:26:38;16.00;95.30
14555;DHT22;7364;50.870;4.722;2023-04-24T14:29:06;15.80;94.70
14555;DHT22;7364;50.870;4.722;2023-04-24T14:31:33;15.70;94.70
14555;DHT22;7364;50.870;4.722;2023-04-24T14:34:02;15.80;94.60
14555;DHT22;7364;50.870;4.722;2023-04-24T14:36:29;15.50;94.30
14555;DHT22;7364;50.870;4.722;2023-04-24T14:38:57;16.60;94.00
14555;DHT22;7364;50.870;4.722;2023-04-24T14:41:24;17.80;93.00
14555;DHT22;7364;50.870;4.722;2023-04-24T14:43:51;18.30;91.10
14555;DHT22;7364;50.870;4.722;2023-04-24T14:46:19;16.60;92.40
14555;DHT22;7364;50.870;4.722;2023-04-24T14:48:46;16.20;93.30
14555;DHT22;7364;50.870;4.722;2023-04-24T14:51:15;15.60;93.90
14555;DHT22;7364;50.870;4.722;2023-04-24T14:53:42;14.90;94.70
14555;DHT22;7364;50.870;4.722;2023-04-24T14:56:12;14.70;95.40
14555;DHT22;7364;50.870;4.722;2023-04-24T14:58:39;14.70;96.00
14555;DHT22;7364;50.870;4.722;2023-04-24T15:01:06;14.70;96.00
14555;DHT22;7364;50.870;4.722;2023-04-24T15:03:34;14.70;96.20
14555;DHT22;7364;50.870;4.722;2023-04-24T15:06:01;14.70;96.60
14555;DHT22;7364;50.870;4.722;2023-04-24T15:08:29;14.60;96.10
14555;DHT22;7364;50.870;4.722;2023-04-24T15:10:57;14.40;96.30
14555;DHT22;7364;50.870;4.722;2023-04-24T15:13:24;14.30;96.90
14555;DHT22;7364;50.870;4.722;2023-04-24T15:15:51;14.40;96.50
14555;DHT22;7364;50.870;4.722;2023-04-24T15:18:18;14.30;96.60
14555;DHT22;7364;50.870;4.722;2023-04-24T15:20:46;14.40;97.00
14555;DHT22;7364;50.870;4.722;2023-04-24T15:23:13;14.40;96.40
14555;DHT22;7364;50.870;4.722;2023-04-24T15:25:41;14.40;96.50
14555;DHT22;7364;50.870;4.722;2023-04-24T15:28:09;14.30;95.70
14555;DHT22;7364;50.870;4.722;2023-04-24T15:30:36;14.20;96.10
14555;DHT22;7364;50.870;4.722;2023-04-24T15:33:04;14.30;96.30
14555;DHT22;7364;50.870;4.722;2023-04-24T15:35:31;14.20;95.90
14555;DHT22;7364;50.870;4.722;2023-04-24T15:37:58;14.20;95.70
14555;DHT22;7364;50.870;4.722;2023-04-24T15:40:26;14.30;96.30
14555;DHT22;7364;50.870;4.722;2023-04-24T15:42:54;14.40;96.20
14555;DHT22;7364;50.870;4.722;2023-04-24T15:45:25;14.40;95.20
14555;DHT22;7364;50.870;4.722;2023-04-24T15:47:52;14.10;94.60
14555;DHT22;7364;50.870;4.722;2023-04-24T15:50:20;13.90;95.20
14555;DHT22;7364;50.870;4.722;2023-04-24T15:52:47;13.90;95.10
14555;DHT22;7364;50.870;4.722;2023-04-24T15:55:14;14.00;95.40
14555;DHT22;7364;50.870;4.722;2023-04-24T15:57:42;14.20;95.40
14555;DHT22;7364;50.870;4.722;2023-04-24T16:00:12;13.90;94.60
14555;DHT22;7364;50.870;4.722;2023-04-24T16:02:39;13.90;95.40
14555;DHT22;7364;50.870;4.722;2023-04-24T16:05:07;13.90;96.00